Time;durP1;ratioP1;P1;durP2;ratioP2;P2;SDS_P1;SDS_P2;PMS_P1;PMS_P2;Temp;Humidity;BMP_temperature;BMP_pressure;BME280_temperature;BME280_humidity;BME280_pressure;Samples;Min_cycle;Max_cycle;Signal;HPM_P1;HPM_P2
2020/12/25 00:01:37;;;;;;;4.82;4.35;;;4.30;99.90;;;;;;5159928;27;20207;-88
2020/12/25 00:04:03;;;;;;;7.60;5.82;;;4.30;99.90;;;;;;5163142;27;20191;-88
2020/12/25 00:06:36;;;;;;;8.57;5.40;;;4.20;99.90;;;;;;5166233;27;20207;-87
2020/12/25 00:09:04;;;;;;;7.22;6.25;;;4.20;99.90;;;;;;5157493;27;20192;-87
2020/12/25 00:11:33;;;;;;;12.50;5.43;;;4.20;99.90;;;;;;5163777;27;20184;-88
2020/12/25 00:13:59;;;;;;;6.78;6.00;;;4.20;99.90;;;;;;5155623;27;20211;-88
2020/12/25 00:16:26;;;;;;;8.15;6.30;;;4.20;99.90;;;;;;5168762;27;20180;-87
2020/12/25 00:18:53;;;;;;;8.50;5.85;;;4.20;99.90;;;;;;5159355;27;20189;-88
2020/12/25 00:21:20;;;;;;;7.75;6.28;;;4.20;99.90;;;;;;5156550;27;20184;-87
2020/12/25 00:23:46;;;;;;;14.98;6.30;;;4.20;99.90;;;;;;5155682;27;20181;-87
2020/12/25 00:26:24;;;;;;;7.78;6.00;;;4.10;99.90;;;;;;5158948;27;20255;-86
2020/12/25 00:28:51;;;;;;;15.50;5.85;;;4.10;99.90;;;;;;5157273;27;20188;-87
2020/12/25 00:31:25;;;;;;;8.00;4.97;;;4.10;99.90;;;;;;5155413;27;20225;-87
2020/12/25 00:33:51;;;;;;;11.10;6.65;;;4.10;99.90;;;;;;5155384;27;20188;-88
2020/12/25 00:36:29;;;;;;;9.30;6.20;;;4.10;99.90;;;;;;5155709;27;20665;-87
2020/12/25 00:38:56;;;;;;;9.32;5.80;;;4.10;99.90;;;;;;5156319;27;20179;-88
2020/12/25 00:41:23;;;;;;;7.85;5.22;;;4.00;99.90;;;;;;5155054;27;20283;-87
2020/12/25 00:43:50;;;;;;;14.10;7.03;;;4.10;99.90;;;;;;5156415;27;20218;-87
2020/12/25 00:46:16;;;;;;;9.70;5.85;;;4.10;99.90;;;;;;5155242;27;20237;-87
2020/12/25 00:48:43;;;;;;;8.00;5.85;;;4.00;99.90;;;;;;5155601;27;20180;-87
2020/12/25 00:51:14;;;;;;;12.40;5.65;;;4.20;99.90;;;;;;5155917;27;20189;-87
2020/12/25 00:53:41;;;;;;;6.75;5.13;;;3.90;99.90;;;;;;5156342;27;20670;-87
2020/12/25 00:56:07;;;;;;;7.90;5.35;;;3.80;99.90;;;;;;5171496;27;20179;-88
2020/12/25 00:58:34;;;;;;;9.85;5.45;;;3.80;99.90;;;;;;5176935;27;20187;-87
2020/12/25 01:01:00;;;;;;;8.30;5.90;;;3.80;99.90;;;;;;5160468;27;20185;-87
2020/12/25 01:03:27;;;;;;;11.32;5.78;;;3.80;99.90;;;;;;5155378;27;20216;-88
2020/12/25 01:05:53;;;;;;;7.47;6.35;;;3.70;99.90;;;;;;5156586;27;20199;-87
2020/12/25 01:08:20;;;;;;;11.27;6.47;;;3.70;99.90;;;;;;5156329;27;20184;-87
2020/12/25 01:10:46;;;;;;;8.38;4.72;;;3.60;99.90;;;;;;5156581;27;20205;-88
2020/12/25 01:13:12;;;;;;;7.20;5.57;;;3.60;99.90;;;;;;5157473;27;20546;-88
2020/12/25 01:15:40;;;;;;;13.27;5.60;;;3.50;99.90;;;;;;5157310;27;20189;-88
2020/12/25 01:18:07;;;;;;;7.13;4.65;;;3.50;99.90;;;;;;5156546;27;20623;-88
2020/12/25 01:20:34;;;;;;;10.38;5.35;;;3.50;99.90;;;;;;5157048;27;20275;-88
2020/12/25 01:23:00;;;;;;;8.55;4.30;;;3.40;99.90;;;;;;5157425;27;20275;-88
2020/12/25 01:25:26;;;;;;;5.78;4.70;;;3.70;99.90;;;;;;5157981;27;20185;-88
2020/12/25 01:27:53;;;;;;;7.10;4.22;;;3.30;99.90;;;;;;5167432;27;20187;-87
2020/12/25 01:30:22;;;;;;;7.05;5.68;;;3.30;99.90;;;;;;5176170;27;20215;-88
2020/12/25 01:32:49;;;;;;;10.80;4.32;;;3.30;99.90;;;;;;5175806;27;20242;-88
2020/12/25 01:35:15;;;;;;;10.18;5.45;;;3.30;99.90;;;;;;5173710;27;20279;-88
2020/12/25 01:37:42;;;;;;;8.93;5.18;;;3.30;99.90;;;;;;5171111;27;20247;-88
2020/12/25 01:40:08;;;;;;;5.25;4.10;;;3.20;99.90;;;;;;5162313;27;20192;-88
2020/12/25 01:42:35;;;;;;;7.78;5.78;;;3.20;99.90;;;;;;5160520;27;20690;-88
2020/12/25 01:45:02;;;;;;;10.43;4.68;;;3.10;99.90;;;;;;5161386;27;20627;-88
2020/12/25 01:47:30;;;;;;;5.50;4.38;;;3.20;99.90;;;;;;5160649;27;20310;-88
2020/12/25 01:49:58;;;;;;;7.32;4.93;;;3.20;99.90;;;;;;5160457;27;20184;-88
2020/12/25 01:52:25;;;;;;;12.10;4.70;;;3.50;99.90;;;;;;5160342;27;20793;-87
2020/12/25 01:54:52;;;;;;;6.05;4.45;;;3.20;99.90;;;;;;5159391;27;20183;-87
2020/12/25 01:57:19;;;;;;;6.38;4.00;;;3.20;99.90;;;;;;5160118;27;20210;-88
2020/12/25 01:59:47;;;;;;;7.25;4.65;;;3.20;99.90;;;;;;5159202;27;20232;-88
2020/12/25 02:02:16;;;;;;;6.28;3.67;;;3.20;99.90;;;;;;5160143;27;20685;-88
2020/12/25 02:04:42;;;;;;;9.25;4.80;;;3.20;99.90;;;;;;5158977;27;20210;-88
2020/12/25 02:07:10;;;;;;;6.50;4.30;;;3.20;99.90;;;;;;5159089;27;20191;-88
2020/12/25 02:09:36;;;;;;;5.65;3.42;;;3.20;99.90;;;;;;5163956;27;20504;-89
2020/12/25 02:12:02;;;;;;;6.20;5.50;;;3.30;99.90;;;;;;5164803;27;20192;-88
2020/12/25 02:14:29;;;;;;;4.63;2.95;;;3.30;99.90;;;;;;5166978;27;20188;-88
2020/12/25 02:16:55;;;;;;;4.70;3.17;;;3.30;99.90;;;;;;5170995;27;20180;-90
2020/12/25 02:19:21;;;;;;;6.40;3.20;;;3.40;99.90;;;;;;5166684;27;20607;-88
2020/12/25 02:21:49;;;;;;;8.93;4.38;;;3.30;99.90;;;;;;5161218;27;20261;-87
2020/12/25 02:24:15;;;;;;;6.13;4.03;;;3.30;99.90;;;;;;5160952;27;20160;-88
2020/12/25 02:26:41;;;;;;;7.82;4.20;;;3.30;99.90;;;;;;5160359;27;20191;-88
2020/12/25 02:29:07;;;;;;;6.85;4.13;;;3.40;99.90;;;;;;5159870;27;20251;-88
2020/12/25 02:31:34;;;;;;;5.05;2.30;;;3.30;99.90;;;;;;5158814;27;20188;-87
2020/12/25 02:34:00;;;;;;;8.10;2.67;;;3.50;99.90;;;;;;5159635;27;20252;-88
2020/12/25 02:36:26;;;;;;;4.07;2.92;;;3.30;99.90;;;;;;5159915;27;20180;-87
2020/12/25 02:38:54;;;;;;;5.35;2.55;;;3.30;99.90;;;;;;5159475;27;20188;-88
2020/12/25 02:41:21;;;;;;;5.25;3.00;;;3.30;99.90;;;;;;5159239;27;20694;-87
2020/12/25 02:43:48;;;;;;;4.95;2.55;;;3.30;99.90;;;;;;5159793;27;20217;-87
2020/12/25 02:46:15;;;;;;;15.45;5.18;;;3.30;99.90;;;;;;5159847;27;20190;-87
2020/12/25 02:48:41;;;;;;;8.75;3.30;;;3.20;99.90;;;;;;5159210;27;20177;-87
2020/12/25 02:51:08;;;;;;;6.72;3.22;;;3.20;99.90;;;;;;5158987;27;20202;-87
2020/12/25 02:53:34;;;;;;;10.70;2.55;;;3.20;99.90;;;;;;5159358;27;20538;-87
2020/12/25 02:56:01;;;;;;;4.28;2.63;;;3.10;99.90;;;;;;5159339;27;20179;-87
2020/12/25 02:58:28;;;;;;;6.53;4.45;;;3.10;99.90;;;;;;5158754;27;20189;-88
2020/12/25 03:00:54;;;;;;;11.05;3.63;;;3.20;99.90;;;;;;5158520;27;20176;-87
2020/12/25 03:03:20;;;;;;;6.60;2.65;;;3.10;99.90;;;;;;5157451;27;20275;-87
2020/12/25 03:05:47;;;;;;;10.25;2.67;;;3.10;99.90;;;;;;5157818;27;20176;-88
2020/12/25 03:08:13;;;;;;;10.63;2.63;;;3.00;99.90;;;;;;5157512;27;20198;-86
2020/12/25 03:10:39;;;;;;;11.90;2.95;;;3.00;99.90;;;;;;5157465;27;20274;-88
2020/12/25 03:13:06;;;;;;;9.63;2.65;;;2.90;99.90;;;;;;5157568;27;20332;-87
2020/12/25 03:15:33;;;;;;;5.45;2.95;;;2.90;99.90;;;;;;5157379;27;20215;-88
2020/12/25 03:17:59;;;;;;;9.43;2.92;;;2.80;99.90;;;;;;5157940;27;20180;-87
2020/12/25 03:20:25;;;;;;;6.03;3.42;;;2.80;99.90;;;;;;5158581;27;20184;-86
2020/12/25 03:22:51;;;;;;;5.30;3.00;;;2.70;99.90;;;;;;5166353;27;20234;-86
2020/12/25 03:25:18;;;;;;;7.80;2.75;;;2.60;99.90;;;;;;5157182;27;20188;-86
2020/12/25 03:27:44;;;;;;;3.50;2.20;;;2.50;99.90;;;;;;5157073;27;20192;-86
2020/12/25 03:30:11;;;;;;;10.63;3.40;;;2.40;99.90;;;;;;5157137;27;20194;-87
2020/12/25 03:32:37;;;;;;;5.95;2.53;;;2.40;99.90;;;;;;5157207;27;20219;-88
2020/12/25 03:35:05;;;;;;;6.30;3.40;;;2.30;99.90;;;;;;5157493;27;20181;-89
2020/12/25 03:37:31;;;;;;;4.32;2.30;;;2.30;99.90;;;;;;5156507;27;20287;-88
2020/12/25 03:39:58;;;;;;;7.80;3.50;;;2.20;99.90;;;;;;5156945;27;20236;-88
2020/12/25 03:42:25;;;;;;;6.55;3.28;;;2.00;99.90;;;;;;5156477;27;20289;-88
2020/12/25 03:44:54;;;;;;;4.50;2.80;;;2.00;99.90;;;;;;5157512;27;20190;-87
2020/12/25 03:47:23;;;;;;;7.43;4.00;;;1.90;99.90;;;;;;5159298;27;20190;-88
2020/12/25 03:49:49;;;;;;;9.77;2.85;;;1.90;99.90;;;;;;5159066;27;20204;-88
2020/12/25 03:52:16;;;;;;;4.18;2.45;;;1.80;99.90;;;;;;5156860;27;20189;-88
2020/12/25 03:54:42;;;;;;;10.00;2.70;;;1.70;99.90;;;;;;5157916;27;20200;-88
2020/12/25 03:57:08;;;;;;;8.95;2.63;;;1.70;99.90;;;;;;5157056;27;20198;-88
2020/12/25 03:59:35;;;;;;;6.40;3.40;;;1.70;99.90;;;;;;5156403;27;20215;-88
2020/12/25 04:02:01;;;;;;;6.47;2.63;;;1.70;99.90;;;;;;5157253;27;20203;-87
2020/12/25 04:04:28;;;;;;;10.68;4.22;;;1.60;99.90;;;;;;5157603;27;20553;-87
2020/12/25 04:06:54;;;;;;;8.68;3.25;;;1.60;99.90;;;;;;5156953;27;20645;-88
2020/12/25 04:09:21;;;;;;;11.70;3.80;;;1.70;99.90;;;;;;5158185;27;20249;-88
2020/12/25 04:11:49;;;;;;;9.15;3.13;;;1.60;99.90;;;;;;5157464;27;20262;-88
2020/12/25 04:14:15;;;;;;;4.55;2.45;;;2.00;99.90;;;;;;5157581;27;20276;-88
2020/12/25 04:16:41;;;;;;;9.02;3.70;;;1.60;99.90;;;;;;5165273;27;20687;-88
2020/12/25 04:19:08;;;;;;;6.47;3.10;;;1.60;99.90;;;;;;5163426;27;20198;-89
2020/12/25 04:21:35;;;;;;;18.35;3.78;;;1.50;99.90;;;;;;5166559;27;20186;-88
2020/12/25 04:24:01;;;;;;;11.60;4.80;;;1.50;99.90;;;;;;5164290;27;20182;-88
2020/12/25 04:26:28;;;;;;;10.70;2.58;;;1.50;99.90;;;;;;5165571;27;20197;-88
2020/12/25 04:28:54;;;;;;;15.80;4.93;;;1.50;99.90;;;;;;5166987;27;20195;-88
2020/12/25 04:31:23;;;;;;;10.57;3.50;;;1.40;99.90;;;;;;5166079;27;20202;-88
2020/12/25 04:33:49;;;;;;;11.77;4.07;;;1.40;99.90;;;;;;5160952;27;20201;-88
2020/12/25 04:36:16;;;;;;;8.80;4.70;;;1.40;99.90;;;;;;5156450;27;20222;-88
2020/12/25 04:38:43;;;;;;;10.68;4.40;;;1.70;99.90;;;;;;5156267;27;20192;-88
2020/12/25 04:41:09;;;;;;;6.65;3.30;;;1.30;99.90;;;;;;5157339;27;20826;-88
2020/12/25 04:43:39;;;;;;;13.35;3.97;;;1.30;99.90;;;;;;5156636;27;20740;-88
2020/12/25 04:46:06;;;;;;;15.27;5.15;;;1.30;99.90;;;;;;5157207;27;20252;-88
2020/12/25 04:48:33;;;;;;;14.73;4.88;;;1.20;99.90;;;;;;5157329;27;20193;-89
2020/12/25 04:50:59;;;;;;;10.73;4.13;;;1.10;99.90;;;;;;5156387;27;20204;-88
2020/12/25 04:53:26;;;;;;;10.35;5.22;;;1.10;99.90;;;;;;5156152;27;20231;-88
2020/12/25 04:55:54;;;;;;;10.30;4.70;;;1.30;99.90;;;;;;5157235;27;20221;-89
2020/12/25 04:58:20;;;;;;;15.88;6.53;;;1.20;99.90;;;;;;5156747;27;20190;-88
2020/12/25 05:01:01;;;;;;;9.00;4.50;;;1.30;99.90;;;;;;5156665;27;20212;-88
2020/12/25 05:03:32;;;;;;;12.20;4.50;;;1.10;99.90;;;;;;5157388;27;20270;-88
2020/12/25 05:06:03;;;;;;;15.60;5.22;;;1.10;99.90;;;;;;5140090;27;20261;-89
2020/12/25 05:08:36;;;;;;;13.10;6.63;;;1.00;99.90;;;;;;5152772;27;20196;-88
2020/12/25 05:11:05;;;;;;;10.40;6.40;;;1.10;99.90;;;;;;5160557;27;20319;-90
2020/12/25 05:13:31;;;;;;;9.07;5.07;;;1.00;99.90;;;;;;5160803;27;20277;-86
2020/12/25 05:15:58;;;;;;;10.90;5.78;;;1.10;99.90;;;;;;5162655;27;20192;-88
2020/12/25 05:18:30;;;;;;;10.50;5.97;;;1.00;99.90;;;;;;5160966;27;20280;-88
2020/12/25 05:20:58;;;;;;;16.88;5.80;;;1.00;99.90;;;;;;5161803;27;20634;-88
2020/12/25 05:23:31;;;;;;;11.73;6.93;;;1.00;99.90;;;;;;5161290;27;20213;-88
2020/12/25 05:25:59;;;;;;;9.63;4.57;;;0.90;99.90;;;;;;5161413;27;20190;-88
2020/12/25 05:28:29;;;;;;;13.75;5.93;;;0.90;99.90;;;;;;5166072;27;20196;-88
2020/12/25 05:30:59;;;;;;;9.65;6.18;;;0.90;99.90;;;;;;5162354;27;20724;-88
2020/12/25 05:33:26;;;;;;;8.63;5.43;;;1.00;99.90;;;;;;5166539;27;20189;-88
2020/12/25 05:35:54;;;;;;;12.80;5.18;;;0.90;99.90;;;;;;5168838;27;20246;-87
2020/12/25 05:38:21;;;;;;;12.82;5.10;;;0.90;99.90;;;;;;5169400;27;20195;-88
2020/12/25 05:40:48;;;;;;;11.57;5.15;;;0.90;99.90;;;;;;5164811;27;20267;-87
2020/12/25 05:43:15;;;;;;;12.20;5.70;;;0.80;99.90;;;;;;5161839;27;20306;-87
2020/12/25 05:45:43;;;;;;;12.63;6.53;;;1.20;99.90;;;;;;5150405;27;20275;-87
2020/12/25 05:48:09;;;;;;;11.93;5.90;;;1.10;99.90;;;;;;5161085;27;20223;-87
2020/12/25 05:50:36;;;;;;;13.27;5.28;;;1.10;99.90;;;;;;5168431;27;20251;-87
2020/12/25 05:53:03;;;;;;;31.42;7.82;;;1.00;99.90;;;;;;5167557;27;20184;-87
2020/12/25 05:55:30;;;;;;;15.35;6.18;;;0.90;99.90;;;;;;5167248;27;20212;-86
2020/12/25 05:57:57;;;;;;;10.93;5.40;;;0.90;99.90;;;;;;5170689;27;20281;-87
2020/12/25 06:00:24;;;;;;;26.45;6.65;;;0.80;99.90;;;;;;5177381;27;20237;-90
2020/12/25 06:02:53;;;;;;;9.85;5.93;;;0.90;99.90;;;;;;5177359;27;20288;-89
2020/12/25 06:05:21;;;;;;;13.20;5.18;;;0.70;99.90;;;;;;5172956;27;20272;-90
2020/12/25 06:07:50;;;;;;;10.73;5.28;;;0.60;99.90;;;;;;5162292;27;20184;-89
2020/12/25 06:10:18;;;;;;;11.07;5.20;;;0.50;99.90;;;;;;5162090;27;20256;-90
2020/12/25 06:12:45;;;;;;;5.28;4.15;;;0.50;99.90;;;;;;5163716;27;20230;-90
2020/12/25 06:15:17;;;;;;;10.02;5.20;;;0.40;99.90;;;;;;5165346;27;20195;-91
2020/12/25 06:18:01;;;;;;;9.48;4.85;;;0.40;99.90;;;;;;5169029;27;20688;-89
2020/12/25 06:20:35;;;;;;;12.82;5.85;;;0.50;99.90;;;;;;5177878;27;20193;-90
2020/12/25 06:23:04;;;;;;;14.30;6.30;;;0.40;99.90;;;;;;5174063;27;20271;-89
2020/12/25 06:25:31;;;;;;;13.65;7.47;;;0.50;99.90;;;;;;5164703;27;20215;-89
2020/12/25 06:28:00;;;;;;;14.10;8.00;;;0.60;99.90;;;;;;5159963;27;20180;-90
2020/12/25 06:30:28;;;;;;;13.93;7.25;;;0.70;99.90;;;;;;5160555;27;20186;-90
2020/12/25 06:32:57;;;;;;;14.82;7.93;;;0.80;99.90;;;;;;5161869;27;20189;-90
2020/12/25 06:35:35;;;;;;;15.57;7.20;;;0.90;99.90;;;;;;5160675;27;20193;-90
2020/12/25 06:38:13;;;;;;;12.68;9.32;;;1.00;99.90;;;;;;5160562;27;20681;-90
2020/12/25 06:40:40;;;;;;;21.98;13.05;;;1.10;99.90;;;;;;5161029;27;20373;-91
2020/12/25 06:43:13;;;;;;;20.77;9.30;;;1.20;99.90;;;;;;5159521;27;20305;-91
2020/12/25 06:45:39;;;;;;;17.83;9.05;;;1.20;99.90;;;;;;5166369;27;20254;-90
2020/12/25 06:48:13;;;;;;;18.55;7.88;;;1.30;99.90;;;;;;5168091;27;20198;-90
2020/12/25 06:50:43;;;;;;;12.35;7.10;;;1.40;99.90;;;;;;5168962;27;20252;-91
2020/12/25 06:53:10;;;;;;;18.25;7.68;;;1.40;99.90;;;;;;5172045;27;20205;-89
2020/12/25 06:55:45;;;;;;;19.02;7.53;;;1.40;99.90;;;;;;5168597;27;20254;-89
2020/12/25 06:58:19;;;;;;;17.13;13.93;;;1.50;99.90;;;;;;5161836;27;20628;-90
2020/12/25 07:01:05;;;;;;;192.50;117.55;;;1.50;99.90;;;;;;5162116;27;20208;-93
2020/12/25 07:03:35;;;;;;;57.63;37.67;;;1.50;99.90;;;;;;5163103;27;20220;-91
2020/12/25 07:06:04;;;;;;;13.57;6.97;;;1.60;99.90;;;;;;5167583;27;20248;-91
2020/12/25 07:08:33;;;;;;;11.82;7.35;;;2.00;99.90;;;;;;5162948;27;20197;-90
2020/12/25 07:11:03;;;;;;;17.40;8.68;;;1.60;99.90;;;;;;5167005;27;20185;-93
2020/12/25 07:19:27;;;;;;;13.77;7.68;;;1.60;99.90;;;;;;5170830;27;20204;-94
2020/12/25 07:24:39;;;;;;;16.25;7.40;;;1.50;99.90;;;;;;5169780;27;20186;-91
2020/12/25 07:27:07;;;;;;;11.68;7.00;;;1.50;99.90;;;;;;5163878;27;20193;-94
2020/12/25 07:29:34;;;;;;;13.25;6.82;;;1.50;99.90;;;;;;5166839;27;20214;-92
2020/12/25 07:32:00;;;;;;;10.70;6.72;;;1.50;99.90;;;;;;5172676;27;20527;-93
2020/12/25 07:34:28;;;;;;;9.48;7.45;;;1.50;99.90;;;;;;5160002;27;20218;-93
2020/12/25 07:36:58;;;;;;;16.90;8.20;;;1.50;99.90;;;;;;5154102;27;20190;-93
2020/12/25 07:39:26;;;;;;;12.88;5.93;;;1.50;99.90;;;;;;5162379;27;20188;-93
2020/12/25 07:41:53;;;;;;;9.18;6.63;;;1.50;99.90;;;;;;5154894;27;20239;-92
2020/12/25 07:44:21;;;;;;;20.95;7.20;;;1.50;99.90;;;;;;5161335;27;20528;-92
2020/12/25 07:46:48;;;;;;;15.88;7.47;;;1.50;99.90;;;;;;5161124;27;20197;-92
2020/12/25 07:49:14;;;;;;;9.38;5.60;;;1.70;99.90;;;;;;5159553;27;20248;-93
2020/12/25 07:51:41;;;;;;;13.57;6.78;;;1.50;99.90;;;;;;5159867;27;20627;-91
2020/12/25 07:57:24;;;;;;;9.63;5.00;;;1.50;99.90;;;;;;5163657;27;20579;-90
2020/12/25 07:59:50;;;;;;;10.25;6.85;;;1.70;99.90;;;;;;5167280;27;20192;-90
2020/12/25 08:02:18;;;;;;;11.27;4.20;;;1.50;99.90;;;;;;5165875;27;20202;-91
2020/12/25 08:07:31;;;;;;;5.85;4.10;;;1.60;99.90;;;;;;5167051;27;20177;-90
2020/12/25 08:10:00;;;;;;;8.40;4.45;;;1.50;99.90;;;;;;5161165;27;20194;-90
2020/12/25 08:12:29;;;;;;;23.17;5.32;;;1.50;99.90;;;;;;5159166;27;20219;-89
2020/12/25 08:15:00;;;;;;;12.13;4.00;;;1.50;99.90;;;;;;5160309;27;20183;-90
2020/12/25 08:17:26;;;;;;;6.88;4.45;;;1.50;99.90;;;;;;5161501;27;20277;-91
2020/12/25 08:19:52;;;;;;;10.98;6.18;;;1.50;99.90;;;;;;5160562;27;20205;-90
2020/12/25 08:22:19;;;;;;;10.10;4.70;;;1.40;99.90;;;;;;5159325;27;20203;-89
2020/12/25 08:24:46;;;;;;;6.28;2.90;;;1.30;99.90;;;;;;5160510;27;20231;-92
2020/12/25 08:27:16;;;;;;;7.82;4.38;;;1.20;99.90;;;;;;5164839;27;20280;-88
2020/12/25 08:29:43;;;;;;;5.80;4.93;;;1.20;99.90;;;;;;5158298;27;20187;-87
2020/12/25 08:32:11;;;;;;;7.82;5.43;;;1.70;99.90;;;;;;5166794;27;20207;-86
2020/12/25 08:49:09;;;;;;;6.70;4.20;;;1.70;99.90;;;;;;5117548;22;20265;-91
2020/12/25 08:51:37;;;;;;;8.68;5.00;;;1.90;99.90;;;;;;5083884;28;20184;-93
2020/12/25 08:54:11;;;;;;;8.07;4.13;;;2.00;99.90;;;;;;5091723;28;20217;-92
2020/12/25 08:56:45;;;;;;;11.40;4.55;;;2.00;99.90;;;;;;5094434;28;20183;-93
2020/12/25 09:15:00;;;;;;;28.17;5.70;;;2.40;99.90;;;;;;5074002;28;20192;-90
2020/12/25 09:17:27;;;;;;;9.20;4.45;;;2.80;99.90;;;;;;5073642;28;20212;-92
2020/12/25 09:19:56;;;;;;;10.25;5.47;;;2.70;99.90;;;;;;5118828;22;20237;-91
2020/12/25 09:25:07;;;;;;;11.18;4.85;;;3.00;99.90;;;;;;5261095;22;20264;-92
2020/12/25 09:27:33;;;;;;;9.27;4.50;;;3.10;99.90;;;;;;5409975;22;20223;-89
2020/12/25 09:30:02;;;;;;;5.47;3.17;;;3.10;99.90;;;;;;5115736;28;20186;-92
2020/12/25 09:32:43;;;;;;;12.25;4.30;;;3.20;99.90;;;;;;5263041;22;20233;-92
2020/12/25 09:35:09;;;;;;;5.10;3.50;;;3.20;99.90;;;;;;5126947;28;20202;-90
2020/12/25 09:49:39;;;;;;;5.45;3.20;;;3.30;99.90;;;;;;5121143;28;20195;-91
2020/12/25 10:00:23;;;;;;;4.07;2.78;;;3.30;99.90;;;;;;5135172;27;20192;-92
2020/12/25 10:02:52;;;;;;;11.20;3.38;;;3.70;99.90;;;;;;5134863;27;20206;-92
2020/12/25 10:05:22;;;;;;;5.85;2.53;;;3.30;99.90;;;;;;5137647;27;20189;-93
2020/12/25 10:17:23;;;;;;;6.00;2.70;;;3.30;99.90;;;;;;5261309;22;20222;-93
2020/12/25 10:22:51;;;;;;;4.43;2.85;;;3.40;99.90;;;;;;5609918;22;20219;-92
2020/12/25 10:25:43;;;;;;;5.10;2.72;;;3.30;99.90;;;;;;5134501;28;20219;-94
2020/12/25 10:28:11;;;;;;;5.00;2.30;;;3.30;99.90;;;;;;5124914;28;20620;-93
2020/12/25 10:30:39;;;;;;;5.10;2.60;;;3.30;99.90;;;;;;5129095;28;20213;-94
2020/12/25 10:33:06;;;;;;;6.25;3.20;;;3.30;99.90;;;;;;5129995;28;20557;-93
2020/12/25 10:41:09;;;;;;;5.25;3.20;;;3.30;99.90;;;;;;5133560;28;20206;-92
2020/12/25 10:51:53;;;;;;;3.22;1.90;;;3.50;99.90;;;;;;5094648;28;20191;-91
2020/12/25 10:54:20;;;;;;;5.70;3.10;;;3.50;99.90;;;;;;5102505;28;20247;-90
2020/12/25 10:56:49;;;;;;;4.95;2.47;;;3.50;99.90;;;;;;5104654;28;20206;-90
2020/12/25 10:59:15;;;;;;;8.10;2.55;;;3.60;99.90;;;;;;5102165;28;20182;-90
2020/12/25 11:01:46;;;;;;;7.22;2.45;;;3.90;99.90;;;;;;5107118;28;20591;-90
2020/12/25 11:04:16;;;;;;;5.30;3.65;;;3.90;99.90;;;;;;5091751;28;20221;-90
2020/12/25 11:06:44;;;;;;;10.45;2.50;;;3.90;99.90;;;;;;5088300;28;20281;-91
2020/12/25 11:09:11;;;;;;;4.63;2.42;;;4.10;99.90;;;;;;5103595;28;20290;-91
2020/12/25 11:11:40;;;;;;;3.35;2.15;;;4.00;99.90;;;;;;5102593;28;20269;-91
2020/12/25 11:14:08;;;;;;;5.05;2.40;;;4.10;99.90;;;;;;5103876;28;20209;-90
2020/12/25 11:16:36;;;;;;;4.95;2.40;;;4.10;99.90;;;;;;5097157;28;20195;-90
2020/12/25 11:19:03;;;;;;;10.52;3.10;;;4.20;99.90;;;;;;5087429;28;20192;-89
2020/12/25 11:21:32;;;;;;;8.50;2.50;;;4.20;99.90;;;;;;5090390;28;20274;-88
2020/12/25 11:24:00;;;;;;;6.93;3.35;;;4.60;99.90;;;;;;5110539;28;20550;-90
2020/12/25 11:26:30;;;;;;;7.03;2.60;;;4.40;99.90;;;;;;5098209;28;20183;-90
2020/12/25 11:28:57;;;;;;;5.72;1.88;;;4.70;99.90;;;;;;5085034;28;20207;-90
2020/12/25 11:31:26;;;;;;;11.80;2.00;;;5.30;99.90;;;;;;5080147;28;20270;-90
2020/12/25 11:33:53;;;;;;;9.93;3.75;;;5.60;99.90;;;;;;5096894;28;20251;-91
2020/12/25 11:36:20;;;;;;;6.03;1.85;;;5.50;99.90;;;;;;5079668;28;20333;-92
2020/12/25 11:38:48;;;;;;;4.65;1.90;;;5.40;99.90;;;;;;5079075;28;20267;-92
2020/12/25 11:41:25;;;;;;;6.10;2.15;;;5.60;99.90;;;;;;5096959;28;20630;-90
2020/12/25 11:44:25;;;;;;;3.30;1.83;;;6.20;99.90;;;;;;5110730;28;20689;-90
2020/12/25 11:46:58;;;;;;;5.35;1.83;;;6.50;99.90;;;;;;5108484;28;20518;-91
2020/12/25 11:49:30;;;;;;;5.05;2.00;;;6.10;99.90;;;;;;5098330;28;20290;-90
2020/12/25 11:51:57;;;;;;;10.40;2.45;;;5.80;99.90;;;;;;5091265;28;20232;-90
2020/12/25 11:54:23;;;;;;;6.28;2.20;;;5.50;99.90;;;;;;5100692;28;20199;-91
2020/12/25 11:56:52;;;;;;;5.05;2.05;;;5.20;99.90;;;;;;5085324;28;20282;-89
2020/12/25 11:59:19;;;;;;;11.70;2.17;;;4.90;99.90;;;;;;5080299;28;20179;-89
2020/12/25 12:01:46;;;;;;;6.97;2.53;;;4.60;99.90;;;;;;5084919;28;20279;-90
2020/12/25 12:04:14;;;;;;;7.38;2.28;;;5.60;99.90;;;;;;5090045;28;20215;-90
2020/12/25 12:06:40;;;;;;;5.72;2.75;;;4.90;99.90;;;;;;5085093;28;20188;-90
2020/12/25 12:09:06;;;;;;;4.60;1.63;;;5.60;99.90;;;;;;5095169;28;20190;-90
2020/12/25 12:11:40;;;;;;;5.55;2.10;;;6.30;99.90;;;;;;5094112;28;20262;-91
2020/12/25 12:14:06;;;;;;;8.52;2.75;;;7.00;99.90;;;;;;5094690;28;20195;-91
2020/12/25 12:16:32;;;;;;;4.63;2.28;;;7.50;99.90;;;;;;5091166;28;20211;-91
2020/12/25 12:18:59;;;;;;;9.23;3.45;;;7.60;99.90;;;;;;5090539;28;20251;-89
2020/12/25 12:21:26;;;;;;;7.20;2.40;;;7.60;99.90;;;;;;5105169;28;20225;-90
2020/12/25 12:23:53;;;;;;;4.47;2.30;;;7.30;99.90;;;;;;5106847;28;20270;-90
2020/12/25 12:26:19;;;;;;;6.00;2.33;;;7.30;99.90;;;;;;5110334;28;20662;-90
2020/12/25 12:28:46;;;;;;;12.10;3.10;;;7.50;99.90;;;;;;5093505;28;20250;-89
2020/12/25 12:31:14;;;;;;;12.77;4.05;;;8.00;99.90;;;;;;5092331;28;20195;-90
2020/12/25 12:33:40;;;;;;;6.70;2.80;;;8.40;99.90;;;;;;5106939;28;20183;-91
2020/12/25 12:36:08;;;;;;;11.82;3.53;;;8.40;99.90;;;;;;5101024;28;20182;-91
2020/12/25 12:38:35;;;;;;;8.25;4.45;;;8.20;99.90;;;;;;5086214;28;20218;-90
2020/12/25 12:41:07;;;;;;;3.75;1.85;;;7.90;99.90;;;;;;5084053;28;20211;-89
2020/12/25 12:43:35;;;;;;;6.35;2.13;;;7.40;99.90;;;;;;5091657;28;20252;-91
2020/12/25 12:46:05;;;;;;;6.03;1.83;;;7.10;99.90;;;;;;5088435;28;20186;-91
2020/12/25 12:48:33;;;;;;;16.20;2.85;;;6.90;99.90;;;;;;5076989;28;20245;-91
2020/12/25 12:50:59;;;;;;;5.45;2.05;;;6.60;99.90;;;;;;5086041;28;20610;-91
2020/12/25 12:53:26;;;;;;;9.63;3.47;;;6.40;99.90;;;;;;5097219;28;20209;-91
2020/12/25 12:55:54;;;;;;;4.57;2.20;;;6.00;99.90;;;;;;5085763;28;20262;-91
2020/12/25 12:58:20;;;;;;;4.35;2.00;;;5.80;99.90;;;;;;5097137;28;20203;-91
2020/12/25 13:00:47;;;;;;;7.65;2.33;;;5.60;99.90;;;;;;5080893;28;20191;-91
2020/12/25 13:03:13;;;;;;;6.63;3.50;;;5.50;99.90;;;;;;5078144;28;20621;-91
2020/12/25 13:05:40;;;;;;;4.70;2.33;;;5.40;99.90;;;;;;5095570;28;20626;-91
2020/12/25 13:13:28;;;;;;;9.15;2.10;;;5.20;99.90;;;;;;5911157;22;20178;-90
2020/12/25 13:18:32;;;;;;;5.10;1.88;;;5.20;99.90;;;;;;5239335;22;20227;-91
2020/12/25 13:21:01;;;;;;;5.80;2.40;;;5.30;99.90;;;;;;5091814;28;20190;-93
2020/12/25 13:23:31;;;;;;;7.00;2.65;;;5.30;99.90;;;;;;5094089;28;20219;-91
2020/12/25 13:26:07;;;;;;;4.63;2.63;;;5.70;99.90;;;;;;5098984;28;20171;-92
2020/12/25 13:28:37;;;;;;;12.10;2.38;;;5.40;99.90;;;;;;5091525;28;20195;-93
2020/12/25 13:31:04;;;;;;;8.00;3.10;;;5.40;99.90;;;;;;5094039;28;20195;-92
2020/12/25 13:33:32;;;;;;;8.77;3.03;;;5.50;99.90;;;;;;5098374;28;20184;-91
2020/12/25 13:35:59;;;;;;;7.80;2.97;;;5.60;99.90;;;;;;5088287;28;20191;-93
2020/12/25 13:38:26;;;;;;;7.05;3.47;;;5.20;99.90;;;;;;5086782;28;20203;-93
2020/12/25 13:40:53;;;;;;;15.48;7.78;;;5.50;99.90;;;;;;5085816;28;20203;-93
2020/12/25 13:43:20;;;;;;;8.30;3.42;;;5.10;99.90;;;;;;5067267;28;20297;-93
2020/12/25 13:45:49;;;;;;;5.25;2.85;;;5.10;99.90;;;;;;5085106;28;20255;-92
2020/12/25 13:48:16;;;;;;;6.60;2.80;;;5.50;99.90;;;;;;5084582;28;20199;-92
2020/12/25 13:50:43;;;;;;;5.32;2.08;;;5.00;99.90;;;;;;5066512;28;20209;-92
2020/12/25 13:53:10;;;;;;;7.30;3.08;;;5.00;99.90;;;;;;5084616;28;20195;-93
2020/12/25 13:55:36;;;;;;;7.50;2.30;;;5.00;99.90;;;;;;5066503;28;20511;-94
2020/12/25 13:58:03;;;;;;;8.73;2.47;;;5.20;99.90;;;;;;5083403;28;20214;-92
2020/12/25 14:00:38;;;;;;;4.70;1.95;;;5.00;99.90;;;;;;5085153;28;20195;-93
2020/12/25 14:06:09;;;;;;;5.15;2.55;;;5.00;99.90;;;;;;5086559;28;20179;-91
2020/12/25 14:08:36;;;;;;;6.95;2.72;;;5.00;99.90;;;;;;5086068;28;20198;-92
2020/12/25 14:11:04;;;;;;;16.48;2.25;;;5.10;99.90;;;;;;5087401;28;20275;-91
2020/12/25 14:13:31;;;;;;;2.90;1.60;;;5.20;99.90;;;;;;5090060;28;20215;-92
2020/12/25 14:50:27;;;;;;;4.85;2.20;;;5.70;99.90;;;;;;5094441;28;20187;-91
2020/12/25 14:52:54;;;;;;;6.63;2.38;;;5.60;99.90;;;;;;5098697;28;20187;-91
2020/12/25 14:55:22;;;;;;;5.13;2.25;;;5.60;99.90;;;;;;5099448;28;20186;-92
2020/12/25 15:48:53;;;;;;;12.40;3.15;;;4.20;99.90;;;;;;5111280;28;20242;-90
2020/12/25 15:51:21;;;;;;;4.65;2.58;;;4.30;99.90;;;;;;5101717;28;20246;-89
2020/12/25 15:53:48;;;;;;;7.72;3.35;;;4.30;99.90;;;;;;5102474;28;20669;-91
2020/12/25 15:56:15;;;;;;;5.15;2.42;;;4.30;99.90;;;;;;5102565;28;20194;-91
2020/12/25 15:58:42;;;;;;;7.53;3.10;;;4.30;99.90;;;;;;5105838;28;20186;-90
2020/12/25 16:01:23;;;;;;;10.43;3.55;;;4.20;99.90;;;;;;5107227;28;20274;-90
2020/12/25 16:03:53;;;;;;;8.63;3.38;;;4.20;99.90;;;;;;5102806;28;20249;-90
2020/12/25 16:06:30;;;;;;;8.60;4.50;;;4.10;99.90;;;;;;5106844;28;20201;-90
2020/12/25 16:08:56;;;;;;;8.20;3.00;;;4.10;99.90;;;;;;5103543;28;20194;-89